Hauptseite
METAR-TAF:

METAR-TAF

Flughäfen :

Awg-1, Niederlande

Bohrplattform

Breite: 53-29-30N, Länge: 5-56-30E, Höhe: 33 m

Beobachtung

Neuester Wetterbericht von vor 19 Minuten, um 13:25 UTC
Wind 17 kt aus Ost, variierte zwischen Ost/Nordost und Ost/Südost
Temperatur 2°C
Luftfeuchtigkeit 64%
Luftdruck 1030 hPa
Sichtweite 10 km oder mehr
Durchbrochene Bewölkung in der Höhe von 2200 ft

METAR: EHMA 241325Z AUTO 10017KT 060V120 9999 BKN022 02/M04 Q1030 W///H///

Zeit: 14:44 (13:44 UTC)


TAF: fehlend

Wetterbeobachtungen und Prognosen von mehr als 4000 Flughäfen (METAR und TAF Bericht).

Die verfügbaren Stationen werden durch gelbe und rote Markierungen auf der Karte dargestellt.

Führen Sie die Maus auf sie, um den Namen der Station zu sehen.

Darauf klicken, um die Beobachtung von Wetterbeobachtungen und Prognosen zu sehen.

Um die Karte zu ändern : klicken Sie auf den grünen Tasten mit einem schwarzen Kreuz Zum Vergrößern, auf den grünen Button mit einem Gedankenstrich zu verkleinern, oder auf die grünen Pfeile für benachbarte Karten.


METAR-TAF: